Nearby METAR Reports

 

KAPA - Denver/Arapahoe, Colorado, USA
Distance from station: ENE 3mi, 4km
Updated: Sun, 06/24/2018 1:53pm MDT
Light thunderstorm, Rain, Mostly cloudy
Light thunderstorm, Rain, Mostly cloudy
 Wind from NNE
Wind: NNE 15 mph , 24 km/h, Gust: 29 mph , 46 km/h
Temperature: 54°F , 12°C
Dew Point: 52°F , 11°C
Humidity: 94%
Barometer: 30.09 inHg , 1019 hPa
Summary: Light thunderstorm, Rain
Clouds: Mostly cloudy
Visibility: 7 miles , 11 km
Cloud details: Partly cloudy 4000 ft
Partly cloudy 5000 ft
Mostly cloudy 11000 ft
2018/06/24 19:53 KAPA 241953Z 02013G25KT 7SM -TSRA SCT040 SCT050CB BKN110 12/11 A3009 RMK AO2 PK WND 36028/1938 WSHFT 1936 LTG DSNT NE AND SE AND SW RAB37GSB44E53 TSE09B28 SLP154 OCNL LTGICCG ALQDS TS ALQDS MOV E P0014 T01220106
KBKF - Buckley Angb/Den, Colorado, USA
Distance from station: NE 14mi, 22km
Updated: Sun, 06/24/2018 1:58pm MDT
Light thunderstorm, Rain, Mist, Mostly cloudy
Light thunderstorm, Rain, Mist, Mostly cloudy
 Wind from ENE
Wind: ENE 15 mph , 24 km/h
Temperature: 46°F , 8°C
Wind Chill: 40°F , 4°C
Dew Point: 46°F , 8°C
Humidity: 100%
Barometer: 30.11 inHg , 1019.6 hPa
Summary: Light thunderstorm, Rain, Mist
Clouds: Mostly cloudy
Visibility: 5 miles , 8 km
Cloud details: Few Clouds 1300 ft
Partly cloudy 2000 ft
Mostly cloudy 3000 ft
Mostly cloudy 5500 ft
Mostly cloudy 10000 ft
2018/06/24 19:58 KBKF 241958Z 06013KT 5SM -TSRA BR FEW013 SCT020 BKN030 BKN055 BKN100 08/08 A3011 RMK AO2A PK WND 30033/39 RAB32 TSB20 SLP158 P0080 T00800077
 
KDEN - Denver (dia), Colorado, USA
Distance from station: NNE 24mi, 39km
Updated: Sun, 06/24/2018 1:53pm MDT
Thunderstorm rain, Overcast
Thunderstorm rain, Overcast
 Wind from N
Wind: N 14 mph , 22 km/h, Gust: 37 mph , 59 km/h
Temperature: 54°F , 12°C
Dew Point: 48°F , 9°C
Humidity: 82%
Barometer: 30.07 inHg , 1018.3 hPa
Summary: Thunderstorm Rain
Clouds: Overcast
Visibility: 5 miles , 8 km
Cloud details: Partly cloudy 3100 ft
Partly cloudy 4300 ft
Overcast 5500 ft
2018/06/24 19:53 KDEN 241953Z 36012G32KT 5SM R35L/4500VP6000FT TSRA SCT031 SCT043CB OVC055 12/09 A3007 RMK AO2 PK WND 36034/1926 WSHFT 1904 LTG DSNT NE-S RAB06 SLP136 FRQ LTGICCG OHD TS OHD MOV E P0010 T01170089
KFTG - Denver F. Range, Colorado, USA
Distance from station: NE 24mi, 39km
Updated: Sun, 06/24/2018 1:47pm MDT

 Wind from N
Wind: N 15 mph , 24 km/h, Gust: 31 mph , 50 km/h
Visibility: 5 miles , 8 km
2018/06/24 19:47 KFTG 241947Z 36013G27KT 5SM +VCTSRA BKN028 BKN035 OVC050 12/10 A3010
 
KBJC - Broomfield/Jeffc, Colorado, USA
Distance from station: NNW 26mi, 42km
Updated: Sun, 06/24/2018 1:47pm MDT
Nearby showers, Mostly cloudy
Nearby showers, Mostly cloudy
 Wind from N
Wind: N 14 mph , 22 km/h, Gust: 21 mph , 33 km/h
Temperature: 55°F , 13°C
Dew Point: 52°F , 11°C
Humidity: 88%
Barometer: 30.09 inHg , 1019 hPa
Summary: Nearby Showers
Clouds: Mostly cloudy
Visibility: 30 miles , 48 km
Cloud details: Few Clouds 300 ft
Partly cloudy 1000 ft
Mostly cloudy 6000 ft
2018/06/24 19:47 KBJC 241947Z 35012G18KT 30SM VCSH FEW003 SCT010 BKN060CB 13/11 A3009 RMK OCNL LTGCG DSNT NE-SE TS DSNT SE MOV SE CBMAM NW CB NE-SE
KMNH - Monument/Elbert, Colorado, USA
Distance from station: SSE 27mi, 43km
Updated: Sun, 06/24/2018 1:48pm MDT
Light thunderstorm, Rain, Overcast
Light thunderstorm, Rain, Overcast
 Wind from ESE
Wind: ESE 5 mph , 7 km/h
Temperature: 48°F , 9°C
Wind Chill: 46°F , 8°C
Dew Point: 45°F , 7°C
Humidity: 87%
Barometer: 30.14 inHg , 1020.7 hPa
Summary: Light thunderstorm, Rain
Clouds: Overcast
Visibility: 10 miles , 16 km
Cloud details: Partly cloudy 1400 ft
Partly cloudy 2700 ft
Overcast 6500 ft
2018/06/24 19:48 KMNH 241948Z AUTO 12004KT 10SM -TSRA SCT014 SCT027 OVC065 09/07 A3014 RMK AO2 LTG DSNT NW THRU SE P0019
 
KEIK - Erie Muni, Colorado, USA
Distance from station: NNW 33mi, 53km
Updated: Sun, 06/24/2018 1:54pm MDT
Nearby thunderstorm, Partly cloudy
Nearby thunderstorm, Partly cloudy
 Wind from N
Wind: N 6 mph , 9 km/h
Temperature: 55°F , 13°C
Dew Point: 52°F , 11°C
Humidity: 88%
Barometer: 30.14 inHg , 1020.7 hPa
Summary: Nearby Thunderstorm
Clouds: Partly cloudy
Visibility: 10 miles , 16 km
Cloud details: Partly cloudy 12000 ft
2018/06/24 19:54 KEIK 241954Z AUTO 01005KT 10SM VCTS SCT120 13/11 A3014 RMK AO2 LTG DSNT ALQS T01320107
KBDU - Boulder Muni, Colorado, USA
Distance from station: NNW 38mi, 60km
Updated: Sun, 06/24/2018 1:54pm MDT
Nearby thunderstorm, Partly cloudy
Nearby thunderstorm, Partly cloudy
 Wind from N
Wind: N 10 mph , 17 km/h
Temperature: 59°F , 15°C
Dew Point: 55°F , 13°C
Humidity: 88%
Barometer: 30.10 inHg , 1019.3 hPa
Summary: Nearby Thunderstorm
Clouds: Partly cloudy
Visibility: 10 miles , 16 km
Cloud details: Partly cloudy 2700 ft
Partly cloudy 12000 ft
2018/06/24 19:54 KBDU 241954Z AUTO 35009KT 10SM VCTS SCT027 SCT120 15/13 A3010 RMK AO2 LTG DSNT ALQS
 
KAFF - Usaf Academy/Cos, Colorado, USA
Distance from station: S 41mi, 66km
Updated: Sun, 06/24/2018 1:58pm MDT
Mostly cloudy
Mostly cloudy
 Wind from NNE
Wind: NNE 12 mph , 19 km/h
Temperature: 63°F , 17°C
Dew Point: 48°F , 9°C
Humidity: 59%
Barometer: 30.08 inHg , 1018.6 hPa
Clouds: Mostly cloudy
Visibility: 10 miles , 16 km
Cloud details: Mostly cloudy 2900 ft
2018/06/24 19:58 KAFF 241958Z 02010KT 10SM BKN029 17/09 A3008 RMK AO2A RAB25E37 SLP114 P0000 T01720094
KLMO - Longmont/Vbrand, Colorado, USA
Distance from station: NNW 45mi, 72km
Updated: Sun, 06/24/2018 1:55pm MDT
Haze, Partly cloudy
Haze, Partly cloudy
 Wind from N
Wind: N 13 mph , 20 km/h
Temperature: 61°F , 16°C
Dew Point: 55°F , 13°C
Humidity: 83%
Barometer: 30.11 inHg , 1019.6 hPa
Summary: Haze
Clouds: Partly cloudy
Visibility: 5 miles , 8 km
Cloud details: Partly cloudy 4000 ft
Partly cloudy 4700 ft
Partly cloudy 12000 ft
2018/06/24 19:55 KLMO 241955Z AUTO 01011KT 5SM HZ SCT040 SCT047 SCT120 16/13 A3011 RMK AO2 T01600125
 
KFLY - Co Spngs Meadow, Colorado, USA
Distance from station: SSE 45mi, 73km
Updated: Sun, 06/24/2018 1:55pm MDT
Nearby thunderstorm, Overcast
Nearby thunderstorm, Overcast
 Wind from S
Wind: S 3 mph , 6 km/h
Temperature: 64°F , 18°C
Dew Point: 46°F , 8°C
Humidity: 52%
Barometer: 30.11 inHg , 1019.6 hPa
Summary: Nearby Thunderstorm
Clouds: Overcast
Visibility: 10 miles , 16 km
Cloud details: Overcast 3400 ft
2018/06/24 19:55 KFLY 241955Z AUTO 17003KT 10SM VCTS OVC034 18/08 A3011 RMK AO2 LTG DSNT N AND NE T01800080
K4BM - Wilkerson Pass, Colorado, USA
Distance from station: SW 48mi, 77km
Updated: Sun, 06/24/2018 1:54pm MDT
Nearby thunderstorm, Overcast
Nearby thunderstorm, Overcast
 Wind from ENE
Wind: ENE 10 mph , 17 km/h, Gust: 16 mph , 26 km/h
Temperature: 46°F , 8°C
Wind Chill: 41°F , 5°C
Dew Point: 37°F , 3°C
Humidity: 71%
Barometer: 30.36 inHg , 1028.1 hPa
Summary: Nearby Thunderstorm
Clouds: Overcast
Visibility: 10 miles , 16 km
Cloud details: Partly cloudy 400 ft
Mostly cloudy 8000 ft
Overcast 10000 ft
2018/06/24 19:54 K4BM 241954Z AUTO 07009G14KT 10SM VCTS SCT004 BKN080 OVC100 08/03 A3036 RMK AO2 LTG DSNT SW THRU N
 
K0CO - Berthoud Pass, Colorado, USA
Distance from station: WNW 49mi, 79km
Updated: Sun, 06/24/2018 1:53pm MDT
Light thunderstorm, Snow, Mostly cloudy
Light thunderstorm, Snow, Mostly cloudy
 Wind from NW
Wind: NW 44 mph , 70 km/h, Gust: 48 mph , 78 km/h
Temperature: 36°F , 2°C
Wind Chill: 21°F , -6°C
Dew Point: 23°F , -5°C
Humidity: 60%
Barometer: 30.37 inHg , 1028.4 hPa
Summary: Light thunderstorm, Snow
Clouds: Mostly cloudy
Visibility: 10 miles , 16 km
Cloud details: Partly cloudy 1600 ft
Partly cloudy 2600 ft
Mostly cloudy 4600 ft
2018/06/24 19:53 K0CO 241953Z AUTO 32038G42KT 10SM -TSSN SCT016 SCT026 BKN046 02/M05 A3037 RMK AO2 LTG DSNT N THRU SE